Time;durP1;ratioP1;P1;durP2;ratioP2;P2;SDS_P1;SDS_P2;PMS_P1;PMS_P2;Temp;Humidity;BMP_temperature;BMP_pressure;BME280_temperature;BME280_humidity;BME280_pressure;Samples;Min_cycle;Max_cycle;Signal;HPM_P1;HPM_P2
2023/06/23 00:00:22;;;;;;;2.58;0.20;;;;;;;15.34;100.00;93230.63;2074836;28;20065;-80
2023/06/23 00:01:27;;;;;;;0.35;0.10;;;;;;;15.48;100.00;93233.97;2080374;28;20415;-80
2023/06/23 00:02:37;;;;;;;0.93;0.30;;;;;;;15.54;100.00;93227.59;2071978;28;20038;-83
2023/06/23 00:03:48;;;;;;;1.25;0.40;;;;;;;15.60;100.00;93223.09;2069281;28;20028;-81
2023/06/23 00:05:00;;;;;;;1.17;0.30;;;;;;;15.53;100.00;93226.06;2079628;28;20030;-85
2023/06/23 00:06:08;;;;;;;1.52;0.60;;;;;;;15.64;100.00;93220.28;2070443;28;20056;-82
2023/06/23 00:07:17;;;;;;;0.90;0.70;;;;;;;15.61;100.00;93221.91;2067678;28;20078;-88
2023/06/23 00:08:26;;;;;;;1.02;0.93;;;;;;;15.71;100.00;93221.94;2068514;28;20041;-81
2023/06/23 00:09:29;;;;;;;6.00;1.00;;;;;;;15.66;100.00;93228.69;2067358;28;20077;-85
2023/06/23 00:10:36;;;;;;;0.90;0.90;;;;;;;15.66;100.00;93233.31;2068251;28;20486;-83
2023/06/23 00:11:53;;;;;;;2.72;1.30;;;;;;;15.46;100.00;93239.81;2078736;28;20021;-83
2023/06/23 00:13:02;;;;;;;2.65;1.02;;;;;;;15.53;100.00;93244.16;2077867;28;20540;-85
2023/06/23 00:14:09;;;;;;;1.38;0.90;;;;;;;15.58;100.00;93244.38;2073944;28;20037;-83
2023/06/23 00:15:22;;;;;;;2.67;0.80;;;;;;;15.49;100.00;93252.38;2067391;28;20029;-85
2023/06/23 00:16:31;;;;;;;0.90;0.90;;;;;;;15.41;100.00;93255.78;2078080;28;20056;-81
2023/06/23 00:17:40;;;;;;;1.42;0.88;;;;;;;15.40;100.00;93257.75;2085652;28;20029;-82
2023/06/23 00:18:47;;;;;;;1.08;0.98;;;;;;;15.39;100.00;93250.13;2082994;28;20025;-86
2023/06/23 00:19:55;;;;;;;1.98;0.90;;;;;;;15.28;100.00;93247.84;2089745;28;20054;-87
2023/06/23 00:21:03;;;;;;;1.48;0.90;;;;;;;15.33;100.00;93248.00;2086825;28;20397;-80
2023/06/23 00:22:10;;;;;;;2.70;0.98;;;;;;;15.31;100.00;93244.25;2083854;28;20033;-88
2023/06/23 00:23:20;;;;;;;2.50;0.90;;;;;;;15.39;100.00;93250.13;2070218;28;20058;-85
2023/06/23 00:24:27;;;;;;;1.17;1.08;;;;;;;15.30;100.00;93245.44;2068411;28;20573;-81
2023/06/23 00:25:33;;;;;;;1.00;1.00;;;;;;;15.31;100.00;93249.63;2076736;28;20036;-85
2023/06/23 00:26:38;;;;;;;2.15;1.00;;;;;;;15.35;100.00;93253.69;2092417;28;20029;-86
2023/06/23 00:27:47;;;;;;;1.52;1.00;;;;;;;15.36;100.00;93249.81;2082332;28;20022;-81
2023/06/23 00:29:09;;;;;;;3.70;0.82;;;;;;;15.36;100.00;93257.13;2078465;28;20089;-80
2023/06/23 00:30:18;;;;;;;4.55;1.08;;;;;;;15.31;100.00;93253.06;2074417;28;20057;-82
2023/06/23 00:31:26;;;;;;;1.58;1.00;;;;;;;15.33;100.00;93252.63;2067567;28;20027;-84
2023/06/23 00:32:35;;;;;;;2.30;1.17;;;;;;;15.29;100.00;93255.47;2060647;28;20026;-80
2023/06/23 00:33:45;;;;;;;1.70;0.95;;;;;;;15.34;100.00;93260.28;2079115;28;20025;-82
2023/06/23 00:34:54;;;;;;;4.00;0.80;;;;;;;15.33;100.00;93256.06;2092939;28;20729;-82
2023/06/23 00:36:00;;;;;;;1.60;0.90;;;;;;;15.30;100.00;93258.91;2083985;28;20037;-83
2023/06/23 00:37:11;;;;;;;1.20;0.77;;;;;;;15.30;100.00;93261.59;2067013;28;20027;-86
2023/06/23 00:38:20;;;;;;;2.35;1.13;;;;;;;15.36;100.00;93260.59;2060856;28;20069;-82
2023/06/23 00:39:30;;;;;;;3.13;1.10;;;;;;;15.42;100.00;93257.31;2073291;28;20068;-85
2023/06/23 00:40:44;;;;;;;1.67;0.90;;;;;;;15.43;100.00;93270.34;2071778;28;20034;-86
2023/06/23 00:41:51;;;;;;;2.38;0.90;;;;;;;15.45;100.00;93269.88;2074176;28;20026;-85
2023/06/23 00:43:01;;;;;;;1.27;0.65;;;;;;;15.49;100.00;93270.50;2075705;28;20025;-85
2023/06/23 00:44:12;;;;;;;2.47;0.85;;;;;;;15.58;100.00;93271.31;2075882;28;20026;-82
2023/06/23 00:45:19;;;;;;;1.55;0.40;;;;;;;15.41;100.00;93270.03;2083529;28;20040;-84
2023/06/23 00:46:28;;;;;;;0.50;0.50;;;;;;;15.58;100.00;93281.31;2083430;28;20112;-85
2023/06/23 00:47:40;;;;;;;0.60;0.30;;;;;;;15.46;100.00;93280.22;2075096;28;20663;-84
2023/06/23 00:48:50;;;;;;;0.40;0.20;;;;;;;15.41;100.00;93282.72;2073844;28;20022;-85
2023/06/23 00:49:58;;;;;;;;;;;;;;;15.21;100.00;93286.53;2079711;28;20485;-83
2023/06/23 00:51:08;;;;;;;1.13;0.30;;;;;;;15.11;100.00;93296.50;2088411;28;19917;-82
2023/06/23 00:52:17;;;;;;;0.45;0.40;;;;;;;15.01;100.00;93313.81;2074677;28;20056;-82
2023/06/23 00:53:26;;;;;;;3.33;0.77;;;;;;;15.04;100.00;93309.47;2061916;28;20022;-83
2023/06/23 00:54:35;;;;;;;1.85;0.57;;;;;;;14.99;100.00;93316.16;2067814;28;20485;-83
2023/06/23 00:55:47;;;;;;;3.85;1.08;;;;;;;14.98;100.00;93317.38;2069094;28;20026;-85
2023/06/23 00:56:58;;;;;;;1.10;1.00;;;;;;;14.93;100.00;93312.56;2068201;28;20025;-79
2023/06/23 00:58:08;;;;;;;1.33;1.10;;;;;;;14.92;100.00;93313.72;2069662;28;20034;-84
2023/06/23 00:59:17;;;;;;;3.25;1.10;;;;;;;14.81;100.00;93321.44;2081129;28;20064;-84
2023/06/23 01:00:27;;;;;;;;;;;;;;;14.81;100.00;93332.19;2082961;28;20037;-82
2023/06/23 01:01:35;;;;;;;1.52;1.42;;;;;;;14.79;100.00;93323.78;2073342;28;20346;-78
2023/06/23 01:02:44;;;;;;;2.13;1.83;;;;;;;14.68;100.00;93326.09;2070157;28;20227;-81
2023/06/23 01:03:50;;;;;;;3.95;2.30;;;;;;;14.59;100.00;93327.53;2082313;28;20112;-81
2023/06/23 01:04:57;;;;;;;3.00;2.70;;;;;;;14.40;100.00;93325.84;2054575;28;20046;-79
2023/06/23 01:06:25;;;;;;;4.20;2.83;;;;;;;14.42;100.00;93328.09;2058227;28;20073;-84
2023/06/23 01:08:03;;;;;;;4.63;3.50;;;;;;;14.32;100.00;93328.03;2073057;28;20036;-79
2023/06/23 01:09:31;;;;;;;4.03;3.47;;;;;;;14.24;100.00;93334.06;2064771;28;20344;-81
2023/06/23 01:11:00;;;;;;;7.93;3.90;;;;;;;14.23;100.00;93337.94;2078155;28;20024;-80
2023/06/23 01:12:19;;;;;;;4.57;4.15;;;;;;;14.25;100.00;93338.25;2081139;28;20067;-84
2023/06/23 01:13:37;;;;;;;6.05;4.82;;;;;;;14.18;100.00;93350.00;2089187;28;20030;-79
2023/06/23 01:15:02;;;;;;;4.50;3.85;;;;;;;14.28;100.00;93338.13;2070999;28;20030;-83
2023/06/23 01:16:30;;;;;;;7.07;4.90;;;;;;;14.23;100.00;93356.75;2068342;28;20048;-83
2023/06/23 01:18:33;;;;;;;6.32;5.00;;;;;;;14.21;100.00;93354.47;2086967;28;20016;-79
2023/06/23 01:20:24;;;;;;;6.47;4.88;;;;;;;14.16;100.00;93349.66;2053185;28;20039;-80
2023/06/23 01:21:49;;;;;;;6.38;5.47;;;;;;;14.01;100.00;93354.75;2083902;28;20199;-82
2023/06/23 01:23:29;;;;;;;6.10;5.47;;;;;;;13.91;100.00;93355.03;2079415;28;20895;-85
2023/06/23 01:25:14;;;;;;;6.73;4.80;;;;;;;14.05;100.00;93347.31;2072774;28;20123;-83
2023/06/23 01:26:48;;;;;;;6.28;4.22;;;;;;;13.88;100.00;93345.94;2069048;28;20468;-81
2023/06/23 01:28:01;;;;;;;4.13;3.72;;;;;;;13.97;100.00;93353.34;2074251;28;20568;-82
2023/06/23 01:29:08;;;;;;;4.70;4.30;;;;;;;13.87;100.00;93347.09;2078713;28;20056;-85
2023/06/23 01:30:14;;;;;;;4.68;3.60;;;;;;;13.94;100.00;93356.88;2082244;28;20417;-83
2023/06/23 01:31:35;;;;;;;5.75;4.07;;;;;;;13.95;100.00;93355.69;2086689;28;20457;-84
2023/06/23 01:32:45;;;;;;;4.65;3.60;;;;;;;13.95;100.00;93353.75;2081430;28;20032;-87
2023/06/23 01:33:52;;;;;;;4.10;3.70;;;;;;;13.95;100.00;93355.69;2073251;28;20473;-85
2023/06/23 01:34:58;;;;;;;6.97;4.35;;;;;;;13.96;100.00;93357.19;2071252;28;20508;-77
2023/06/23 01:36:14;;;;;;;5.22;4.32;;;;;;;13.90;100.00;93365.06;2079572;28;20083;-81
2023/06/23 01:37:24;;;;;;;5.68;4.93;;;;;;;14.01;100.00;93362.81;2069402;28;20036;-80
2023/06/23 01:38:36;;;;;;;5.75;5.15;;;;;;;14.12;100.00;93357.06;2073743;28;20087;-81
2023/06/23 01:39:43;;;;;;;6.30;5.32;;;;;;;14.11;100.00;93353.63;2066788;28;20618;-84
2023/06/23 01:40:51;;;;;;;5.75;5.15;;;;;;;14.03;100.00;93354.28;2081342;28;20083;-83
2023/06/23 01:42:00;;;;;;;8.38;5.80;;;;;;;14.03;100.00;93354.28;2089028;28;20438;-84
2023/06/23 01:43:06;;;;;;;7.93;6.30;;;;;;;14.03;100.00;93357.72;2071866;28;20033;-84
2023/06/23 01:44:15;;;;;;;7.13;6.40;;;;;;;13.86;100.00;93354.41;2081439;28;20021;-82
2023/06/23 01:45:18;;;;;;;7.93;7.13;;;;;;;13.83;100.00;93351.84;2067136;28;20038;-82
2023/06/23 01:46:25;;;;;;;9.30;7.60;;;;;;;13.84;100.00;93345.28;2063390;28;20031;-82
2023/06/23 01:47:33;;;;;;;8.48;6.90;;;;;;;13.85;100.00;93352.16;2067696;28;20018;-81
2023/06/23 01:48:40;;;;;;;9.38;7.78;;;;;;;13.95;100.00;93361.06;2073023;28;20579;-82
2023/06/23 01:49:42;;;;;;;12.80;7.97;;;;;;;13.86;100.00;93359.03;2070253;28;20454;-84
2023/06/23 01:50:45;;;;;;;9.20;8.23;;;;;;;14.09;100.00;93364.09;2073373;28;20129;-80
2023/06/23 01:51:49;;;;;;;9.05;7.68;;;;;;;13.97;100.00;93362.16;2077025;28;20029;-85
2023/06/23 01:52:54;;;;;;;9.48;7.65;;;;;;;13.96;100.00;93366.03;2079761;28;20025;-84
2023/06/23 01:53:57;;;;;;;8.38;7.55;;;;;;;13.96;100.00;93363.34;2066194;28;20540;-83
2023/06/23 01:55:00;;;;;;;9.73;8.00;;;;;;;13.92;100.00;93362.69;2069482;28;20030;-81
2023/06/23 01:56:03;;;;;;;10.70;7.88;;;;;;;13.84;100.00;93353.34;2060058;28;20049;-84
2023/06/23 01:57:05;;;;;;;9.68;8.15;;;;;;;13.85;100.00;93360.22;2057902;28;20106;-84
2023/06/23 01:58:10;;;;;;;9.02;8.07;;;;;;;13.83;100.00;93363.34;2056264;28;20025;-82
2023/06/23 01:59:13;;;;;;;8.77;7.88;;;;;;;13.82;100.00;93361.06;2070316;28;20783;-85
2023/06/23 02:00:18;;;;;;;12.93;8.82;;;;;;;13.93;100.00;93364.19;2081284;28;20060;-84
2023/06/23 02:01:20;;;;;;;9.65;8.30;;;;;;;13.90;100.00;93361.59;2083694;28;20114;-80
2023/06/23 02:02:23;;;;;;;10.75;9.02;;;;;;;13.95;100.00;93361.81;2075275;28;20052;-82
2023/06/23 02:03:29;;;;;;;11.75;8.38;;;;;;;13.94;100.00;93375.69;2065084;28;20034;-79
2023/06/23 02:04:32;;;;;;;10.20;8.25;;;;;;;14.10;100.00;93370.22;2073575;28;20060;-85
2023/06/23 02:05:35;;;;;;;9.63;8.35;;;;;;;14.10;100.00;93367.53;2069452;28;20080;-83
2023/06/23 02:06:40;;;;;;;11.40;9.65;;;;;;;14.00;100.00;93372.03;2073725;28;20381;-85
2023/06/23 02:07:45;;;;;;;13.18;8.50;;;;;;;14.02;100.00;93375.03;2066810;28;20038;-79
2023/06/23 02:08:48;;;;;;;10.85;8.75;;;;;;;14.01;100.00;93364.75;2071691;28;20080;-78
2023/06/23 02:09:51;;;;;;;10.70;8.35;;;;;;;13.94;100.00;93378.38;2072992;28;20075;-81
2023/06/23 02:10:54;;;;;;;9.18;8.35;;;;;;;13.93;100.00;93374.94;2071472;28;20112;-78
2023/06/23 02:11:57;;;;;;;9.13;7.53;;;;;;;13.97;100.00;93382.91;2073166;28;20083;-84
2023/06/23 02:12:59;;;;;;;8.82;7.13;;;;;;;14.19;100.00;93380.31;2072706;28;20032;-85
2023/06/23 02:14:06;;;;;;;8.65;7.03;;;;;;;14.04;100.00;93382.66;2073700;28;20040;-84
2023/06/23 02:15:09;;;;;;;7.75;7.00;;;;;;;14.01;100.00;93378.94;2078991;28;20022;-80
2023/06/23 02:16:12;;;;;;;7.97;6.78;;;;;;;13.94;100.00;93397.94;2064140;28;20079;-80
2023/06/23 02:17:14;;;;;;;9.60;6.55;;;;;;;13.95;100.00;93385.25;2050457;28;20100;-83
2023/06/23 02:18:17;;;;;;;6.80;5.88;;;;;;;14.16;100.00;93395.34;2072627;28;20021;-83
2023/06/23 02:19:23;;;;;;;8.18;5.65;;;;;;;14.04;100.00;93386.09;2073049;28;20608;-85
2023/06/23 02:21:38;;;;;;;7.32;5.90;;;;;;;13.92;100.00;93388.81;2136202;27;20571;-75
2023/06/23 02:22:46;;;;;;;10.18;6.00;;;;;;;13.85;100.00;93381.72;2111262;28;20043;-74
2023/06/23 02:23:49;;;;;;;6.18;5.55;;;;;;;13.76;100.00;93382.34;2101365;28;20442;-78
2023/06/23 02:24:51;;;;;;;6.18;5.40;;;;;;;13.78;100.00;93385.38;2108492;28;20046;-77
2023/06/23 02:25:53;;;;;;;7.00;6.30;;;;;;;13.75;100.00;93388.16;2110817;28;20038;-78
2023/06/23 02:26:55;;;;;;;7.20;6.25;;;;;;;13.68;100.00;93380.31;2099928;28;20406;-77
2023/06/23 02:27:58;;;;;;;8.05;6.22;;;;;;;13.62;100.00;93390.09;2115092;28;20137;-76
2023/06/23 02:29:00;;;;;;;6.25;5.65;;;;;;;13.74;100.00;93384.72;2106946;28;20051;-76
2023/06/23 02:30:02;;;;;;;8.70;7.00;;;;;;;13.75;100.00;93393.53;2110492;28;20076;-78
2023/06/23 02:31:06;;;;;;;7.85;7.05;;;;;;;13.82;100.00;93390.63;2110446;28;20032;-77
2023/06/23 02:32:17;;;;;;;10.40;8.18;;;;;;;13.90;100.00;93385.78;2107403;28;20516;-79
2023/06/23 02:33:18;;;;;;;10.90;8.63;;;;;;;13.86;100.00;93388.59;2099537;28;20469;-80
2023/06/23 02:34:20;;;;;;;9.95;8.88;;;;;;;13.76;100.00;93389.66;2098388;28;20394;-77
2023/06/23 02:35:21;;;;;;;11.65;8.63;;;;;;;13.80;100.00;93384.94;2101470;28;20046;-77
2023/06/23 02:36:32;;;;;;;10.25;9.00;;;;;;;13.83;100.00;93387.53;2100190;28;20081;-77
2023/06/23 02:37:36;;;;;;;14.02;11.00;;;;;;;13.95;100.00;93386.00;2101082;28;20486;-76
2023/06/23 02:38:40;;;;;;;12.45;10.57;;;;;;;14.03;100.00;93398.06;2099832;28;20124;-77
2023/06/23 02:39:46;;;;;;;13.85;11.23;;;;;;;13.96;100.00;93384.84;2100643;28;20031;-76
2023/06/23 02:40:48;;;;;;;15.82;12.07;;;;;;;14.13;100.00;93393.53;2115134;27;20079;-75
2023/06/23 02:41:57;;;;;;;15.07;12.70;;;;;;;13.91;100.00;93396.09;2119598;28;20034;-78
2023/06/23 02:43:16;;;;;;;16.20;12.88;;;;;;;13.81;100.00;93389.88;2100628;28;20118;-77
2023/06/23 02:44:28;;;;;;;14.82;12.77;;;;;;;13.82;100.00;93396.75;2112657;27;20031;-76
2023/06/23 02:45:39;;;;;;;16.13;13.30;;;;;;;13.78;100.00;93395.34;2112146;28;20474;-76
2023/06/23 02:46:46;;;;;;;17.23;12.32;;;;;;;14.00;100.00;93398.91;2100014;28;20040;-76
2023/06/23 02:47:50;;;;;;;17.38;14.05;;;;;;;13.89;100.00;93398.47;2109613;28;20084;-76
2023/06/23 02:48:56;;;;;;;16.70;14.30;;;;;;;13.85;100.00;93397.84;2107619;28;20032;-77
2023/06/23 02:50:03;;;;;;;16.42;13.55;;;;;;;13.75;100.00;93402.34;2112188;27;20093;-76
2023/06/23 02:51:11;;;;;;;17.45;14.18;;;;;;;13.90;100.00;93409.97;2104858;28;20032;-78
2023/06/23 02:52:19;;;;;;;17.10;13.55;;;;;;;13.86;100.00;93402.03;2100704;28;20598;-76
2023/06/23 02:53:32;;;;;;;17.67;14.45;;;;;;;13.86;100.00;93407.41;2109030;28;20067;-76
2023/06/23 02:54:48;;;;;;;19.23;14.13;;;;;;;13.96;100.00;93406.34;2108597;28;20081;-76
2023/06/23 02:56:05;;;;;;;18.33;14.65;;;;;;;13.90;100.00;93409.97;2102788;28;20033;-78
2023/06/23 02:57:32;;;;;;;19.33;14.93;;;;;;;13.80;100.00;93409.88;2107052;28;20059;-76
2023/06/23 02:58:39;;;;;;;20.08;14.77;;;;;;;14.07;100.00;93411.38;2112748;27;20131;-76
2023/06/23 02:59:50;;;;;;;18.80;14.63;;;;;;;13.90;100.00;93412.66;2115838;28;20058;-77
2023/06/23 03:01:01;;;;;;;16.83;14.90;;;;;;;13.97;100.00;93418.59;2104886;28;20394;-77
2023/06/23 03:02:13;;;;;;;20.55;17.00;;;;;;;13.82;100.00;93414.81;2118969;28;20035;-77
2023/06/23 03:03:25;;;;;;;23.77;17.27;;;;;;;13.81;100.00;93427.50;2096997;28;20040;-80
2023/06/23 03:04:34;;;;;;;19.75;16.80;;;;;;;13.81;100.00;93429.44;2107791;28;20485;-76
2023/06/23 03:05:40;;;;;;;17.85;15.75;;;;;;;13.79;100.00;93419.13;2100908;28;20039;-76
2023/06/23 03:06:49;;;;;;;20.15;15.60;;;;;;;13.88;100.00;93423.09;2103473;28;20060;-76
2023/06/23 03:07:56;;;;;;;19.80;16.83;;;;;;;13.83;100.00;93419.78;2111510;28;20112;-77
2023/06/23 03:09:06;;;;;;;19.92;16.67;;;;;;;13.84;100.00;93421.28;2109246;28;20029;-75
2023/06/23 03:10:16;;;;;;;20.63;16.70;;;;;;;13.81;100.00;93427.50;2107947;28;20137;-76
2023/06/23 03:11:22;;;;;;;27.45;18.33;;;;;;;13.69;100.00;93424.78;2109522;27;20071;-76
2023/06/23 03:12:29;;;;;;;23.50;18.58;;;;;;;13.77;100.00;93424.16;2114530;28;20037;-76
2023/06/23 03:13:38;;;;;;;22.77;18.80;;;;;;;13.87;100.00;93433.06;2107566;28;20195;-77
2023/06/23 03:15:01;;;;;;;24.17;18.35;;;;;;;13.86;100.00;93428.91;2110667;28;20062;-77
2023/06/23 03:16:15;;;;;;;23.63;18.50;;;;;;;13.89;100.00;93433.41;2107803;28;20456;-79
2023/06/23 03:17:28;;;;;;;23.98;18.90;;;;;;;13.79;100.00;93427.19;2106634;28;20086;-76
2023/06/23 03:18:54;;;;;;;25.23;18.90;;;;;;;13.86;100.00;93436.94;2115243;27;20024;-75
2023/06/23 03:20:24;;;;;;;24.67;19.48;;;;;;;13.94;100.00;93440.94;2115611;28;20039;-75
2023/06/23 03:21:33;;;;;;;22.90;18.98;;;;;;;13.91;100.00;93441.03;2106984;28;20425;-76
2023/06/23 03:23:02;;;;;;;25.05;18.75;;;;;;;13.90;100.00;93439.53;2109445;27;20574;-76
2023/06/23 03:24:15;;;;;;;23.05;18.92;;;;;;;13.87;100.00;93443.81;2114354;27;20031;-75
2023/06/23 03:25:28;;;;;;;25.17;19.52;;;;;;;13.79;100.00;93445.25;2115427;28;20042;-76
2023/06/23 03:26:57;;;;;;;26.23;20.65;;;;;;;13.74;100.00;93445.75;2102301;28;20028;-78
2023/06/23 03:28:09;;;;;;;25.27;19.67;;;;;;;13.83;100.00;93445.88;2106003;28;20028;-77
2023/06/23 03:29:23;;;;;;;28.42;20.33;;;;;;;13.77;100.00;93456.41;2102932;28;20036;-75
2023/06/23 03:30:49;;;;;;;25.83;21.13;;;;;;;13.86;100.00;93461.13;2105214;28;20032;-78
2023/06/23 03:32:03;;;;;;;24.35;20.23;;;;;;;13.74;100.00;93453.81;2116315;27;20269;-78
2023/06/23 03:33:20;;;;;;;25.08;21.00;;;;;;;13.78;100.00;93459.81;2102297;28;20028;-76
2023/06/23 03:34:36;;;;;;;24.83;19.92;;;;;;;13.86;100.00;93464.56;2113390;27;20039;-76
2023/06/23 03:35:47;;;;;;;27.08;20.60;;;;;;;13.77;100.00;93459.06;2104701;28;20036;-78
2023/06/23 03:36:58;;;;;;;26.80;20.35;;;;;;;13.77;100.00;93459.06;2098775;28;20080;-75
2023/06/23 03:38:24;;;;;;;25.08;21.27;;;;;;;13.71;100.00;93463.47;2107109;27;20433;-75
2023/06/23 03:39:37;;;;;;;26.30;21.55;;;;;;;13.88;100.00;93460.72;2104663;28;20054;-73
2023/06/23 03:41:00;;;;;;;25.98;20.70;;;;;;;14.03;100.00;93461.81;2108458;27;20047;-78
2023/06/23 03:42:10;;;;;;;27.10;20.85;;;;;;;13.85;100.00;93475.75;2103956;28;20027;-77
2023/06/23 03:43:29;;;;;;;25.17;20.70;;;;;;;13.85;100.00;93470.38;2099686;28;20024;-76
2023/06/23 03:44:50;;;;;;;24.45;20.02;;;;;;;13.77;100.00;93477.13;2102900;28;20111;-76
2023/06/23 03:46:07;;;;;;;27.35;21.77;;;;;;;13.97;100.00;93464.28;2106504;28;20059;-75
2023/06/23 03:47:23;;;;;;;30.90;20.77;;;;;;;13.94;100.00;93465.13;2106179;27;20039;-75
2023/06/23 03:48:37;;;;;;;28.75;21.40;;;;;;;13.84;100.00;93477.69;2104527;28;20028;-80
2023/06/23 03:49:51;;;;;;;26.08;20.02;;;;;;;13.75;100.00;93469.50;2097098;28;20082;-79
2023/06/23 03:51:03;;;;;;;26.15;21.65;;;;;;;13.81;100.00;93470.47;2096111;28;20221;-80
2023/06/23 03:52:12;;;;;;;29.63;22.23;;;;;;;13.81;100.00;93483.16;2092717;28;20122;-76
2023/06/23 03:53:23;;;;;;;26.63;21.17;;;;;;;13.84;100.00;93483.06;2096212;28;20036;-80
2023/06/23 03:54:35;;;;;;;30.33;21.13;;;;;;;13.78;100.00;93479.41;2094332;28;20041;-75
2023/06/23 03:55:46;;;;;;;23.35;20.50;;;;;;;13.88;100.00;93480.28;2095295;28;20125;-76
2023/06/23 03:57:02;;;;;;;27.58;21.67;;;;;;;13.88;100.00;93487.59;2095683;28;20054;-78
2023/06/23 03:58:12;;;;;;;29.27;21.42;;;;;;;13.89;100.00;93492.53;2092966;28;20036;-77
2023/06/23 03:59:18;;;;;;;;;;;;;;;13.91;100.00;93492.84;2097487;28;20028;-77
2023/06/23 04:00:29;;;;;;;26.42;21.02;;;;;;;14.11;100.00;93495.38;2100717;28;20405;-75
2023/06/23 04:01:39;;;;;;;24.60;21.08;;;;;;;14.11;100.00;93498.81;2097065;28;20043;-76
2023/06/23 04:02:51;;;;;;;29.95;22.05;;;;;;;14.17;100.00;93501.72;2099344;28;20368;-76
2023/06/23 04:04:02;;;;;;;27.48;22.42;;;;;;;14.05;100.00;93497.84;2105427;28;20110;-75
2023/06/23 04:05:13;;;;;;;28.80;21.67;;;;;;;14.04;100.00;93504.38;2094505;28;20202;-76
2023/06/23 04:06:20;;;;;;;29.73;22.77;;;;;;;13.92;100.00;93499.75;2108463;28;20028;-76
2023/06/23 04:07:27;;;;;;;27.90;23.10;;;;;;;14.01;100.00;93507.94;2106130;28;20027;-76
2023/06/23 04:08:36;;;;;;;29.52;23.08;;;;;;;14.07;100.00;93500.09;2097619;28;20024;-77
2023/06/23 04:10:06;;;;;;;28.33;22.13;;;;;;;14.08;100.00;93501.59;2105113;27;20294;-76
2023/06/23 04:11:16;;;;;;;28.60;22.52;;;;;;;13.99;100.00;93504.16;2093539;28;20387;-76
2023/06/23 04:12:46;;;;;;;28.83;22.75;;;;;;;14.08;100.00;93507.72;2099413;28;20474;-75
2023/06/23 04:13:56;;;;;;;26.75;21.92;;;;;;;14.17;100.00;93520.53;2105047;28;20570;-76
2023/06/23 04:15:00;;;;;;;;;;;;;;;14.10;100.00;93508.06;2104390;28;20524;-79
2023/06/23 04:16:24;;;;;;;27.42;21.90;;;;;;;14.03;100.00;93512.88;2100954;28;19916;-76
2023/06/23 04:17:40;;;;;;;31.13;23.17;;;;;;;14.10;100.00;93508.06;2107280;28;20079;-78
2023/06/23 04:18:56;;;;;;;30.20;23.23;;;;;;;14.27;100.00;93513.34;2112691;27;20075;-79
2023/06/23 04:20:04;;;;;;;29.50;22.80;;;;;;;14.18;100.00;93522.06;2103482;28;20583;-77
2023/06/23 04:21:11;;;;;;;29.20;23.30;;;;;;;14.10;100.00;93520.75;2087841;28;20036;-78
2023/06/23 04:22:20;;;;;;;28.00;23.38;;;;;;;14.11;100.00;93522.25;2092269;28;20043;-79
2023/06/23 04:23:26;;;;;;;31.38;23.80;;;;;;;14.24;100.00;93514.19;2097558;28;20044;-76
2023/06/23 04:24:35;;;;;;;33.75;24.20;;;;;;;14.11;100.00;93516.88;2092342;28;20041;-76
2023/06/23 04:25:48;;;;;;;33.97;24.05;;;;;;;14.06;100.00;93514.72;2098568;28;20035;-76
2023/06/23 04:27:00;;;;;;;33.55;25.02;;;;;;;13.97;100.00;93519.97;2099351;27;20056;-76
2023/06/23 04:28:12;;;;;;;29.52;23.92;;;;;;;14.02;100.00;93519.44;2096483;28;20045;-78
2023/06/23 04:29:19;;;;;;;30.95;25.38;;;;;;;13.96;100.00;93521.91;2091121;28;20127;-77
2023/06/23 04:30:28;;;;;;;30.17;24.20;;;;;;;14.01;100.00;93524.06;2090188;28;20094;-77
2023/06/23 04:31:46;;;;;;;30.83;24.75;;;;;;;13.97;100.00;93536.09;2100962;27;20047;-77
2023/06/23 04:32:50;;;;;;;31.20;24.77;;;;;;;14.05;100.00;93523.97;2107204;27;20063;-78
2023/06/23 04:34:05;;;;;;;31.20;25.20;;;;;;;14.20;100.00;93529.69;2114320;27;20074;-78
2023/06/23 04:35:12;;;;;;;34.00;26.15;;;;;;;14.20;100.00;93535.81;2094510;28;20418;-78
2023/06/23 04:36:24;;;;;;;34.60;26.70;;;;;;;14.10;100.00;93537.63;2099384;27;20132;-77
2023/06/23 04:37:40;;;;;;;34.40;26.25;;;;;;;14.07;100.00;93538.47;2102486;28;20595;-78
2023/06/23 04:39:28;;;;;;;32.63;25.85;;;;;;;14.02;100.00;93540.94;2096202;28;20028;-77
2023/06/23 04:40:47;;;;;;;32.55;24.05;;;;;;;14.12;100.00;93531.81;2091508;28;20040;-78
2023/06/23 04:41:56;;;;;;;34.53;26.23;;;;;;;14.08;100.00;93539.22;2095675;28;20083;-78
2023/06/23 04:43:13;;;;;;;34.38;27.45;;;;;;;14.06;100.00;93539.66;2094837;28;20032;-80
2023/06/23 04:44:22;;;;;;;33.85;26.20;;;;;;;14.17;100.00;93543.97;2095914;28;20086;-77
2023/06/23 04:45:27;;;;;;;33.83;26.80;;;;;;;14.16;100.00;93537.09;2102536;28;20173;-77
2023/06/23 04:46:34;;;;;;;32.95;27.45;;;;;;;14.13;100.00;93541.38;2095091;28;20031;-78
2023/06/23 04:47:43;;;;;;;34.92;27.33;;;;;;;14.17;100.00;93542.03;2091990;28;20079;-79
2023/06/23 04:48:54;;;;;;;32.88;26.92;;;;;;;14.27;100.00;93535.63;2098952;28;20044;-76
2023/06/23 04:50:04;;;;;;;35.35;26.70;;;;;;;14.28;100.00;93541.75;2099114;28;20041;-76
2023/06/23 04:51:10;;;;;;;35.67;26.55;;;;;;;14.25;100.00;93539.91;2095758;28;20555;-77
2023/06/23 04:52:17;;;;;;;35.75;27.75;;;;;;;14.29;100.00;93543.25;2092059;28;20090;-78
2023/06/23 04:53:23;;;;;;;33.92;27.50;;;;;;;14.26;100.00;93552.16;2099385;27;20050;-76
2023/06/23 04:54:51;;;;;;;34.28;27.70;;;;;;;14.32;100.00;93551.22;2101823;28;20651;-76
2023/06/23 04:56:04;;;;;;;36.42;28.05;;;;;;;14.31;100.00;93543.56;2098558;28;20043;-75
2023/06/23 04:57:18;;;;;;;35.45;27.73;;;;;;;14.28;100.00;93547.88;2110087;27;20036;-76
2023/06/23 04:58:30;;;;;;;36.25;28.88;;;;;;;14.38;100.00;93551.44;2111506;28;20034;-76
2023/06/23 05:00:12;;;;;;;39.28;28.77;;;;;;;14.44;100.00;93555.06;2099293;28;20025;-76
2023/06/23 05:01:19;;;;;;;35.03;27.92;;;;;;;14.32;100.00;93556.59;2107914;28;20034;-78
2023/06/23 05:02:38;;;;;;;36.17;27.83;;;;;;;14.41;100.00;93558.66;2105766;27;20036;-78
2023/06/23 05:04:00;;;;;;;36.58;28.73;;;;;;;14.55;100.00;93566.31;2101149;28;20118;-78
2023/06/23 05:05:05;;;;;;;36.70;27.77;;;;;;;14.46;100.00;93558.09;2100824;28;20032;-77
2023/06/23 05:06:22;;;;;;;34.95;28.38;;;;;;;14.42;100.00;93559.41;2109071;27;20099;-78
2023/06/23 05:07:30;;;;;;;35.00;27.45;;;;;;;14.62;100.00;93568.06;2099902;28;20043;-76
2023/06/23 05:08:37;;;;;;;32.15;26.48;;;;;;;14.59;100.00;93563.53;2100945;28;20035;-76
2023/06/23 05:09:43;;;;;;;33.78;28.23;;;;;;;14.48;100.00;93565.75;2101005;28;20020;-76
2023/06/23 05:10:53;;;;;;;35.72;28.30;;;;;;;14.70;100.00;93576.66;2096910;28;20121;-78
2023/06/23 05:11:57;;;;;;;;;;;;;;;14.79;100.00;93569.47;2105829;28;20024;-80
2023/06/23 05:13:05;;;;;;;32.75;25.70;;;;;;;14.91;100.00;93573.31;2096694;28;19917;-80
2023/06/23 05:14:16;;;;;;;31.38;26.42;;;;;;;14.84;100.00;93570.84;2100562;27;20024;-78
2023/06/23 05:15:25;;;;;;;33.88;26.85;;;;;;;14.78;100.00;93578.69;2096381;28;20063;-77
2023/06/23 05:16:31;;;;;;;32.67;26.33;;;;;;;14.60;100.00;93573.09;2099794;28;20044;-77
2023/06/23 05:17:39;;;;;;;31.23;26.20;;;;;;;14.71;100.00;93578.19;2096207;28;20045;-77
2023/06/23 05:19:03;;;;;;;33.63;26.88;;;;;;;14.81;100.00;93567.09;2094225;28;20033;-79
2023/06/23 05:20:22;;;;;;;32.25;27.25;;;;;;;14.64;100.00;93565.69;2095407;28;20024;-78
2023/06/23 05:21:40;;;;;;;34.22;25.83;;;;;;;14.69;100.00;93572.47;2101839;27;20146;-80
2023/06/23 05:22:47;;;;;;;30.40;25.77;;;;;;;14.63;100.00;93572.25;2101834;28;20035;-77
2023/06/23 05:23:51;;;;;;;31.25;25.92;;;;;;;14.71;100.00;93570.84;2093036;28;20270;-77
2023/06/23 05:24:58;;;;;;;31.23;25.63;;;;;;;14.85;100.00;93565.03;2093813;28;20032;-79
2023/06/23 05:26:00;;;;;;;30.05;25.35;;;;;;;14.89;100.00;93566.88;2103531;27;20032;-78
2023/06/23 05:27:06;;;;;;;32.25;25.55;;;;;;;14.80;100.00;93557.50;2099302;28;20036;-77
2023/06/23 05:28:09;;;;;;;31.52;25.60;;;;;;;14.67;100.00;93566.75;2098235;28;20024;-78